sensor_id;sensor_type;location;lat;lon;timestamp;P1;durP1;ratioP1;P2;durP2;ratioP2
45642;SDS011;31358;46.008;11.144;2023-06-24T00:01:25;4.75;;;2.55;;
45642;SDS011;31358;46.008;11.144;2023-06-24T00:03:51;4.13;;;2.28;;
45642;SDS011;31358;46.008;11.144;2023-06-24T00:06:18;3.92;;;2.25;;
45642;SDS011;31358;46.008;11.144;2023-06-24T00:08:45;5.30;;;2.13;;
45642;SDS011;31358;46.008;11.144;2023-06-24T00:11:11;27.42;;;4.05;;
45642;SDS011;31358;46.008;11.144;2023-06-24T00:13:38;5.75;;;2.42;;
45642;SDS011;31358;46.008;11.144;2023-06-24T00:16:05;5.00;;;2.78;;
45642;SDS011;31358;46.008;11.144;2023-06-24T00:18:34;4.80;;;2.47;;
45642;SDS011;31358;46.008;11.144;2023-06-24T00:21:00;5.28;;;2.38;;
45642;SDS011;31358;46.008;11.144;2023-06-24T00:23:27;3.88;;;1.95;;
45642;SDS011;31358;46.008;11.144;2023-06-24T00:25:55;3.55;;;1.70;;
45642;SDS011;31358;46.008;11.144;2023-06-24T00:28:21;5.35;;;2.08;;
45642;SDS011;31358;46.008;11.144;2023-06-24T00:30:48;4.63;;;2.25;;
45642;SDS011;31358;46.008;11.144;2023-06-24T00:33:14;4.43;;;2.20;;
45642;SDS011;31358;46.008;11.144;2023-06-24T00:35:41;4.22;;;2.38;;
45642;SDS011;31358;46.008;11.144;2023-06-24T00:38:08;3.47;;;1.70;;
45642;SDS011;31358;46.008;11.144;2023-06-24T00:40:34;4.50;;;2.10;;
45642;SDS011;31358;46.008;11.144;2023-06-24T00:43:00;4.03;;;1.95;;
45642;SDS011;31358;46.008;11.144;2023-06-24T00:45:27;4.95;;;2.28;;
45642;SDS011;31358;46.008;11.144;2023-06-24T00:47:55;4.70;;;2.05;;
45642;SDS011;31358;46.008;11.144;2023-06-24T00:50:21;3.70;;;1.92;;
45642;SDS011;31358;46.008;11.144;2023-06-24T00:52:47;4.63;;;2.22;;
45642;SDS011;31358;46.008;11.144;2023-06-24T00:55:14;4.18;;;2.22;;
45642;SDS011;31358;46.008;11.144;2023-06-24T00:57:44;3.85;;;1.88;;
45642;SDS011;31358;46.008;11.144;2023-06-24T01:00:15;4.82;;;2.10;;
45642;SDS011;31358;46.008;11.144;2023-06-24T01:02:44;3.88;;;1.95;;
45642;SDS011;31358;46.008;11.144;2023-06-24T01:05:12;5.80;;;2.33;;
45642;SDS011;31358;46.008;11.144;2023-06-24T01:07:39;4.72;;;2.08;;
45642;SDS011;31358;46.008;11.144;2023-06-24T01:10:06;4.00;;;2.00;;
45642;SDS011;31358;46.008;11.144;2023-06-24T01:12:34;3.58;;;1.90;;
45642;SDS011;31358;46.008;11.144;2023-06-24T01:15:03;4.28;;;1.90;;
45642;SDS011;31358;46.008;11.144;2023-06-24T01:17:33;4.80;;;2.30;;
45642;SDS011;31358;46.008;11.144;2023-06-24T01:34:01;3.40;;;1.60;;
45642;SDS011;31358;46.008;11.144;2023-06-24T01:36:47;6.13;;;2.00;;
45642;SDS011;31358;46.008;11.144;2023-06-24T01:39:36;4.75;;;2.03;;
45642;SDS011;31358;46.008;11.144;2023-06-24T01:42:08;6.72;;;1.95;;
45642;SDS011;31358;46.008;11.144;2023-06-24T01:44:37;2.75;;;1.30;;
45642;SDS011;31358;46.008;11.144;2023-06-24T01:47:05;2.47;;;1.30;;
45642;SDS011;31358;46.008;11.144;2023-06-24T01:49:33;3.08;;;1.27;;
45642;SDS011;31358;46.008;11.144;2023-06-24T01:52:03;3.00;;;1.40;;
45642;SDS011;31358;46.008;11.144;2023-06-24T01:54:30;3.30;;;1.67;;
45642;SDS011;31358;46.008;11.144;2023-06-24T01:56:57;2.67;;;1.30;;
45642;SDS011;31358;46.008;11.144;2023-06-24T01:59:25;4.13;;;1.20;;
45642;SDS011;31358;46.008;11.144;2023-06-24T02:01:53;5.00;;;1.50;;
45642;SDS011;31358;46.008;11.144;2023-06-24T02:04:20;4.80;;;1.25;;
45642;SDS011;31358;46.008;11.144;2023-06-24T02:06:46;5.60;;;1.48;;
45642;SDS011;31358;46.008;11.144;2023-06-24T02:09:14;2.97;;;1.42;;
45642;SDS011;31358;46.008;11.144;2023-06-24T02:11:42;2.95;;;1.40;;
45642;SDS011;31358;46.008;11.144;2023-06-24T02:14:09;4.32;;;1.40;;
45642;SDS011;31358;46.008;11.144;2023-06-24T02:16:36;2.55;;;1.13;;
45642;SDS011;31358;46.008;11.144;2023-06-24T02:19:05;3.08;;;1.35;;
45642;SDS011;31358;46.008;11.144;2023-06-24T02:21:34;2.28;;;1.10;;
45642;SDS011;31358;46.008;11.144;2023-06-24T02:24:00;2.63;;;1.30;;
45642;SDS011;31358;46.008;11.144;2023-06-24T02:26:27;4.65;;;1.17;;
45642;SDS011;31358;46.008;11.144;2023-06-24T02:28:53;2.70;;;1.08;;
45642;SDS011;31358;46.008;11.144;2023-06-24T02:31:20;2.55;;;1.20;;
45642;SDS011;31358;46.008;11.144;2023-06-24T02:33:46;3.42;;;1.65;;
45642;SDS011;31358;46.008;11.144;2023-06-24T02:36:12;2.28;;;1.00;;
45642;SDS011;31358;46.008;11.144;2023-06-24T02:38:38;2.75;;;1.17;;
45642;SDS011;31358;46.008;11.144;2023-06-24T02:41:03;3.22;;;0.90;;
45642;SDS011;31358;46.008;11.144;2023-06-24T02:43:30;1.63;;;0.95;;
45642;SDS011;31358;46.008;11.144;2023-06-24T02:45:56;1.55;;;0.70;;
45642;SDS011;31358;46.008;11.144;2023-06-24T02:48:25;2.08;;;0.98;;
45642;SDS011;31358;46.008;11.144;2023-06-24T02:50:53;2.15;;;0.70;;
45642;SDS011;31358;46.008;11.144;2023-06-24T02:53:19;3.55;;;0.95;;
45642;SDS011;31358;46.008;11.144;2023-06-24T02:55:45;3.50;;;0.85;;
45642;SDS011;31358;46.008;11.144;2023-06-24T02:58:11;2.55;;;1.25;;
45642;SDS011;31358;46.008;11.144;2023-06-24T03:00:37;2.42;;;1.00;;
45642;SDS011;31358;46.008;11.144;2023-06-24T03:03:03;2.55;;;1.13;;
45642;SDS011;31358;46.008;11.144;2023-06-24T03:05:30;2.22;;;1.05;;
45642;SDS011;31358;46.008;11.144;2023-06-24T03:07:57;2.85;;;0.90;;
45642;SDS011;31358;46.008;11.144;2023-06-24T03:10:24;1.73;;;0.95;;
45642;SDS011;31358;46.008;11.144;2023-06-24T03:12:50;2.50;;;1.30;;
45642;SDS011;31358;46.008;11.144;2023-06-24T03:15:17;1.88;;;0.82;;
45642;SDS011;31358;46.008;11.144;2023-06-24T03:17:43;2.38;;;1.02;;
45642;SDS011;31358;46.008;11.144;2023-06-24T03:20:09;2.13;;;0.93;;
45642;SDS011;31358;46.008;11.144;2023-06-24T03:22:35;2.13;;;1.25;;
45642;SDS011;31358;46.008;11.144;2023-06-24T03:25:01;1.98;;;0.90;;
45642;SDS011;31358;46.008;11.144;2023-06-24T03:27:27;2.28;;;1.00;;
45642;SDS011;31358;46.008;11.144;2023-06-24T03:29:53;3.25;;;1.27;;
45642;SDS011;31358;46.008;11.144;2023-06-24T03:32:19;1.60;;;0.90;;
45642;SDS011;31358;46.008;11.144;2023-06-24T03:34:44;1.98;;;1.00;;
45642;SDS011;31358;46.008;11.144;2023-06-24T03:37:10;1.38;;;0.70;;
45642;SDS011;31358;46.008;11.144;2023-06-24T03:39:36;2.70;;;1.10;;
45642;SDS011;31358;46.008;11.144;2023-06-24T03:42:01;1.77;;;1.00;;
45642;SDS011;31358;46.008;11.144;2023-06-24T03:44:27;2.60;;;0.98;;
45642;SDS011;31358;46.008;11.144;2023-06-24T03:46:53;1.95;;;0.80;;
45642;SDS011;31358;46.008;11.144;2023-06-24T03:49:19;2.13;;;1.00;;
45642;SDS011;31358;46.008;11.144;2023-06-24T03:51:44;3.08;;;1.00;;
45642;SDS011;31358;46.008;11.144;2023-06-24T03:54:10;1.98;;;0.90;;
45642;SDS011;31358;46.008;11.144;2023-06-24T03:56:35;4.57;;;1.05;;
45642;SDS011;31358;46.008;11.144;2023-06-24T03:59:01;4.88;;;1.20;;
45642;SDS011;31358;46.008;11.144;2023-06-24T04:01:27;1.77;;;0.80;;
45642;SDS011;31358;46.008;11.144;2023-06-24T04:03:56;1.58;;;0.90;;
45642;SDS011;31358;46.008;11.144;2023-06-24T04:06:25;2.47;;;1.00;;
45642;SDS011;31358;46.008;11.144;2023-06-24T04:08:50;1.55;;;0.63;;
45642;SDS011;31358;46.008;11.144;2023-06-24T04:11:17;1.67;;;0.77;;
45642;SDS011;31358;46.008;11.144;2023-06-24T04:13:44;2.38;;;0.80;;
45642;SDS011;31358;46.008;11.144;2023-06-24T04:16:10;1.35;;;0.70;;
45642;SDS011;31358;46.008;11.144;2023-06-24T04:18:36;2.03;;;0.85;;
45642;SDS011;31358;46.008;11.144;2023-06-24T04:21:04;1.92;;;0.63;;
45642;SDS011;31358;46.008;11.144;2023-06-24T04:23:31;2.28;;;0.73;;
45642;SDS011;31358;46.008;11.144;2023-06-24T04:25:57;1.35;;;0.65;;
45642;SDS011;31358;46.008;11.144;2023-06-24T04:28:23;1.20;;;0.52;;
45642;SDS011;31358;46.008;11.144;2023-06-24T04:30:49;5.18;;;0.50;;
45642;SDS011;31358;46.008;11.144;2023-06-24T04:33:15;1.88;;;0.73;;
45642;SDS011;31358;46.008;11.144;2023-06-24T04:35:40;2.70;;;0.90;;
45642;SDS011;31358;46.008;11.144;2023-06-24T04:38:06;1.50;;;0.80;;
45642;SDS011;31358;46.008;11.144;2023-06-24T04:40:32;2.30;;;0.90;;
45642;SDS011;31358;46.008;11.144;2023-06-24T04:42:57;1.98;;;0.90;;
45642;SDS011;31358;46.008;11.144;2023-06-24T04:45:23;2.10;;;1.15;;
45642;SDS011;31358;46.008;11.144;2023-06-24T04:47:49;1.55;;;0.75;;
45642;SDS011;31358;46.008;11.144;2023-06-24T04:50:14;1.85;;;1.00;;
45642;SDS011;31358;46.008;11.144;2023-06-24T04:52:40;1.13;;;0.43;;
45642;SDS011;31358;46.008;11.144;2023-06-24T04:55:06;1.65;;;0.77;;
45642;SDS011;31358;46.008;11.144;2023-06-24T04:57:32;1.25;;;0.57;;
45642;SDS011;31358;46.008;11.144;2023-06-24T04:59:59;2.20;;;0.57;;
45642;SDS011;31358;46.008;11.144;2023-06-24T05:02:25;1.75;;;0.50;;
45642;SDS011;31358;46.008;11.144;2023-06-24T05:04:51;1.77;;;0.73;;
45642;SDS011;31358;46.008;11.144;2023-06-24T05:07:18;2.45;;;0.88;;
45642;SDS011;31358;46.008;11.144;2023-06-24T05:09:45;2.03;;;0.65;;
45642;SDS011;31358;46.008;11.144;2023-06-24T05:12:11;2.13;;;0.90;;
45642;SDS011;31358;46.008;11.144;2023-06-24T05:14:37;7.50;;;0.80;;
45642;SDS011;31358;46.008;11.144;2023-06-24T05:17:03;1.02;;;0.47;;
45642;SDS011;31358;46.008;11.144;2023-06-24T05:19:29;1.98;;;0.73;;
45642;SDS011;31358;46.008;11.144;2023-06-24T05:21:55;3.92;;;0.70;;
45642;SDS011;31358;46.008;11.144;2023-06-24T05:24:21;1.27;;;0.68;;
45642;SDS011;31358;46.008;11.144;2023-06-24T05:26:48;1.65;;;0.60;;
45642;SDS011;31358;46.008;11.144;2023-06-24T05:29:14;1.42;;;0.77;;
45642;SDS011;31358;46.008;11.144;2023-06-24T05:31:41;3.05;;;0.60;;
45642;SDS011;31358;46.008;11.144;2023-06-24T05:34:06;2.55;;;0.80;;
45642;SDS011;31358;46.008;11.144;2023-06-24T05:36:32;1.48;;;0.60;;
45642;SDS011;31358;46.008;11.144;2023-06-24T05:38:58;1.83;;;0.98;;
45642;SDS011;31358;46.008;11.144;2023-06-24T05:41:24;2.67;;;0.65;;
45642;SDS011;31358;46.008;11.144;2023-06-24T05:43:59;1.65;;;0.68;;
45642;SDS011;31358;46.008;11.144;2023-06-24T05:46:27;1.38;;;0.52;;
45642;SDS011;31358;46.008;11.144;2023-06-24T05:48:52;1.50;;;0.60;;
45642;SDS011;31358;46.008;11.144;2023-06-24T05:51:18;2.15;;;0.85;;
45642;SDS011;31358;46.008;11.144;2023-06-24T05:53:44;6.53;;;0.90;;
45642;SDS011;31358;46.008;11.144;2023-06-24T05:56:09;1.38;;;0.70;;
45642;SDS011;31358;46.008;11.144;2023-06-24T05:58:35;1.40;;;0.57;;
45642;SDS011;31358;46.008;11.144;2023-06-24T06:01:01;1.92;;;0.77;;
45642;SDS011;31358;46.008;11.144;2023-06-24T06:03:26;1.33;;;0.70;;
45642;SDS011;31358;46.008;11.144;2023-06-24T06:05:53;1.23;;;0.50;;
45642;SDS011;31358;46.008;11.144;2023-06-24T06:08:18;3.40;;;1.10;;
45642;SDS011;31358;46.008;11.144;2023-06-24T06:10:44;2.63;;;0.70;;
45642;SDS011;31358;46.008;11.144;2023-06-24T06:13:10;3.65;;;0.73;;
45642;SDS011;31358;46.008;11.144;2023-06-24T06:15:35;1.65;;;0.90;;
45642;SDS011;31358;46.008;11.144;2023-06-24T06:18:01;2.83;;;0.85;;
45642;SDS011;31358;46.008;11.144;2023-06-24T06:20:27;7.35;;;1.08;;
45642;SDS011;31358;46.008;11.144;2023-06-24T06:22:52;38.67;;;3.20;;
45642;SDS011;31358;46.008;11.144;2023-06-24T06:25:18;7.13;;;0.82;;
45642;SDS011;31358;46.008;11.144;2023-06-24T06:27:44;2.72;;;0.85;;
45642;SDS011;31358;46.008;11.144;2023-06-24T06:30:09;17.85;;;1.45;;
45642;SDS011;31358;46.008;11.144;2023-06-24T06:32:35;2.15;;;0.70;;
45642;SDS011;31358;46.008;11.144;2023-06-24T06:35:01;8.10;;;1.27;;
45642;SDS011;31358;46.008;11.144;2023-06-24T06:37:27;5.88;;;1.00;;
45642;SDS011;31358;46.008;11.144;2023-06-24T06:39:53;3.58;;;0.80;;
45642;SDS011;31358;46.008;11.144;2023-06-24T06:42:18;4.55;;;0.85;;
45642;SDS011;31358;46.008;11.144;2023-06-24T06:44:44;3.08;;;0.50;;
45642;SDS011;31358;46.008;11.144;2023-06-24T06:47:10;1.83;;;0.93;;
45642;SDS011;31358;46.008;11.144;2023-06-24T06:49:36;5.78;;;0.95;;
45642;SDS011;31358;46.008;11.144;2023-06-24T06:52:02;8.45;;;0.80;;
45642;SDS011;31358;46.008;11.144;2023-06-24T06:54:28;3.55;;;0.65;;
45642;SDS011;31358;46.008;11.144;2023-06-24T06:56:53;1.38;;;0.70;;
45642;SDS011;31358;46.008;11.144;2023-06-24T06:59:20;3.08;;;0.75;;
45642;SDS011;31358;46.008;11.144;2023-06-24T07:01:46;2.28;;;0.80;;
45642;SDS011;31358;46.008;11.144;2023-06-24T07:04:11;6.38;;;0.65;;
45642;SDS011;31358;46.008;11.144;2023-06-24T07:06:37;2.90;;;0.80;;
45642;SDS011;31358;46.008;11.144;2023-06-24T07:09:03;1.83;;;0.70;;
45642;SDS011;31358;46.008;11.144;2023-06-24T07:11:28;3.33;;;0.82;;
45642;SDS011;31358;46.008;11.144;2023-06-24T07:13:54;6.78;;;1.23;;
45642;SDS011;31358;46.008;11.144;2023-06-24T07:16:20;7.32;;;1.15;;
45642;SDS011;31358;46.008;11.144;2023-06-24T07:18:45;2.60;;;0.68;;
45642;SDS011;31358;46.008;11.144;2023-06-24T07:21:11;2.13;;;0.88;;
45642;SDS011;31358;46.008;11.144;2023-06-24T07:23:37;2.92;;;0.80;;
45642;SDS011;31358;46.008;11.144;2023-06-24T07:26:02;33.20;;;3.58;;
45642;SDS011;31358;46.008;11.144;2023-06-24T07:28:28;2.38;;;0.68;;
45642;SDS011;31358;46.008;11.144;2023-06-24T07:30:54;6.80;;;0.70;;
45642;SDS011;31358;46.008;11.144;2023-06-24T07:33:19;2.55;;;0.77;;
45642;SDS011;31358;46.008;11.144;2023-06-24T07:35:45;1.10;;;0.57;;
45642;SDS011;31358;46.008;11.144;2023-06-24T07:38:11;4.38;;;1.45;;
45642;SDS011;31358;46.008;11.144;2023-06-24T07:40:37;2.05;;;0.80;;
45642;SDS011;31358;46.008;11.144;2023-06-24T07:43:02;1.70;;;0.75;;
45642;SDS011;31358;46.008;11.144;2023-06-24T07:45:28;2.70;;;0.47;;
45642;SDS011;31358;46.008;11.144;2023-06-24T07:47:54;3.13;;;0.75;;
45642;SDS011;31358;46.008;11.144;2023-06-24T07:50:19;5.18;;;1.13;;
45642;SDS011;31358;46.008;11.144;2023-06-24T07:52:45;2.97;;;0.68;;
45642;SDS011;31358;46.008;11.144;2023-06-24T07:55:11;5.60;;;0.70;;
45642;SDS011;31358;46.008;11.144;2023-06-24T07:57:37;4.40;;;0.80;;
45642;SDS011;31358;46.008;11.144;2023-06-24T08:00:03;2.03;;;0.60;;
45642;SDS011;31358;46.008;11.144;2023-06-24T08:02:34;48.17;;;3.28;;
45642;SDS011;31358;46.008;11.144;2023-06-24T08:05:00;2.25;;;1.02;;
45642;SDS011;31358;46.008;11.144;2023-06-24T08:07:25;5.95;;;1.00;;
45642;SDS011;31358;46.008;11.144;2023-06-24T08:09:51;2.08;;;0.68;;
45642;SDS011;31358;46.008;11.144;2023-06-24T08:12:17;2.60;;;0.90;;
45642;SDS011;31358;46.008;11.144;2023-06-24T08:14:42;3.10;;;1.00;;
45642;SDS011;31358;46.008;11.144;2023-06-24T08:17:08;1.30;;;0.50;;
45642;SDS011;31358;46.008;11.144;2023-06-24T08:19:34;16.77;;;1.58;;
45642;SDS011;31358;46.008;11.144;2023-06-24T08:21:59;2.63;;;0.90;;
45642;SDS011;31358;46.008;11.144;2023-06-24T08:24:25;2.53;;;1.00;;
45642;SDS011;31358;46.008;11.144;2023-06-24T08:26:51;4.68;;;0.80;;
45642;SDS011;31358;46.008;11.144;2023-06-24T08:29:18;1.50;;;0.70;;
45642;SDS011;31358;46.008;11.144;2023-06-24T08:31:44;1.55;;;0.80;;
45642;SDS011;31358;46.008;11.144;2023-06-24T08:34:09;2.05;;;0.85;;
45642;SDS011;31358;46.008;11.144;2023-06-24T08:36:35;1.58;;;0.60;;
45642;SDS011;31358;46.008;11.144;2023-06-24T08:39:02;4.03;;;0.70;;
45642;SDS011;31358;46.008;11.144;2023-06-24T08:41:28;3.13;;;0.73;;
45642;SDS011;31358;46.008;11.144;2023-06-24T08:43:53;4.20;;;0.90;;
45642;SDS011;31358;46.008;11.144;2023-06-24T08:46:19;2.13;;;0.98;;
45642;SDS011;31358;46.008;11.144;2023-06-24T08:48:48;1.65;;;0.60;;
45642;SDS011;31358;46.008;11.144;2023-06-24T08:51:19;2.10;;;0.70;;
45642;SDS011;31358;46.008;11.144;2023-06-24T08:53:47;1.77;;;0.60;;
45642;SDS011;31358;46.008;11.144;2023-06-24T08:56:13;1.08;;;0.47;;
45642;SDS011;31358;46.008;11.144;2023-06-24T08:58:40;1.83;;;0.82;;
45642;SDS011;31358;46.008;11.144;2023-06-24T09:01:06;2.08;;;1.00;;
45642;SDS011;31358;46.008;11.144;2023-06-24T09:03:33;1.55;;;0.70;;
45642;SDS011;31358;46.008;11.144;2023-06-24T09:05:59;1.75;;;0.73;;
45642;SDS011;31358;46.008;11.144;2023-06-24T09:08:24;6.13;;;1.00;;
45642;SDS011;31358;46.008;11.144;2023-06-24T09:10:53;7.07;;;0.80;;
45642;SDS011;31358;46.008;11.144;2023-06-24T09:13:20;3.58;;;0.90;;
45642;SDS011;31358;46.008;11.144;2023-06-24T09:15:48;3.47;;;0.60;;
45642;SDS011;31358;46.008;11.144;2023-06-24T09:18:13;2.13;;;0.90;;
45642;SDS011;31358;46.008;11.144;2023-06-24T09:20:42;1.98;;;1.02;;
45642;SDS011;31358;46.008;11.144;2023-06-24T09:23:10;2.17;;;0.95;;
45642;SDS011;31358;46.008;11.144;2023-06-24T09:25:36;4.38;;;0.98;;
45642;SDS011;31358;46.008;11.144;2023-06-24T09:28:02;3.38;;;0.90;;
45642;SDS011;31358;46.008;11.144;2023-06-24T09:30:28;3.05;;;0.68;;
45642;SDS011;31358;46.008;11.144;2023-06-24T09:32:54;4.93;;;0.93;;
45642;SDS011;31358;46.008;11.144;2023-06-24T09:35:21;1.83;;;0.88;;
45642;SDS011;31358;46.008;11.144;2023-06-24T09:37:54;1.77;;;0.55;;
45642;SDS011;31358;46.008;11.144;2023-06-24T09:42:48;1.45;;;0.60;;
45642;SDS011;31358;46.008;11.144;2023-06-24T09:45:21;2.97;;;0.60;;
45642;SDS011;31358;46.008;11.144;2023-06-24T09:47:52;2.67;;;0.93;;
45642;SDS011;31358;46.008;11.144;2023-06-24T09:50:18;2.17;;;0.75;;
45642;SDS011;31358;46.008;11.144;2023-06-24T09:52:45;2.40;;;0.80;;
45642;SDS011;31358;46.008;11.144;2023-06-24T09:55:15;2.85;;;1.00;;
45642;SDS011;31358;46.008;11.144;2023-06-24T09:57:44;2.78;;;0.93;;
45642;SDS011;31358;46.008;11.144;2023-06-24T10:00:14;2.13;;;1.00;;
45642;SDS011;31358;46.008;11.144;2023-06-24T10:02:43;1.88;;;0.90;;
45642;SDS011;31358;46.008;11.144;2023-06-24T10:05:09;1.38;;;0.60;;
45642;SDS011;31358;46.008;11.144;2023-06-24T10:07:36;2.70;;;0.73;;
45642;SDS011;31358;46.008;11.144;2023-06-24T10:10:02;5.75;;;0.70;;
45642;SDS011;31358;46.008;11.144;2023-06-24T10:12:28;2.92;;;0.82;;
45642;SDS011;31358;46.008;11.144;2023-06-24T10:14:54;3.63;;;0.73;;
45642;SDS011;31358;46.008;11.144;2023-06-24T10:17:20;2.80;;;0.80;;
45642;SDS011;31358;46.008;11.144;2023-06-24T10:19:46;1.83;;;0.80;;
45642;SDS011;31358;46.008;11.144;2023-06-24T10:22:12;2.25;;;0.80;;
45642;SDS011;31358;46.008;11.144;2023-06-24T10:24:39;2.70;;;0.82;;
45642;SDS011;31358;46.008;11.144;2023-06-24T10:27:14;6.10;;;1.00;;
45642;SDS011;31358;46.008;11.144;2023-06-24T10:29:47;2.33;;;1.08;;
45642;SDS011;31358;46.008;11.144;2023-06-24T10:32:14;2.03;;;0.93;;
45642;SDS011;31358;46.008;11.144;2023-06-24T10:34:41;2.42;;;1.08;;
45642;SDS011;31358;46.008;11.144;2023-06-24T10:39:49;3.05;;;0.90;;
45642;SDS011;31358;46.008;11.144;2023-06-24T10:42:32;1.77;;;0.80;;
45642;SDS011;31358;46.008;11.144;2023-06-24T10:47:42;2.90;;;0.98;;
45642;SDS011;31358;46.008;11.144;2023-06-24T10:50:10;4.38;;;1.42;;
45642;SDS011;31358;46.008;11.144;2023-06-24T10:52:42;3.83;;;0.90;;
45642;SDS011;31358;46.008;11.144;2023-06-24T10:55:09;4.45;;;0.90;;
45642;SDS011;31358;46.008;11.144;2023-06-24T10:57:35;1.85;;;0.95;;
45642;SDS011;31358;46.008;11.144;2023-06-24T11:00:01;1.08;;;0.57;;
45642;SDS011;31358;46.008;11.144;2023-06-24T11:02:28;4.20;;;0.88;;
45642;SDS011;31358;46.008;11.144;2023-06-24T11:04:55;2.10;;;0.73;;
45642;SDS011;31358;46.008;11.144;2023-06-24T11:07:26;3.92;;;1.00;;
45642;SDS011;31358;46.008;11.144;2023-06-24T11:09:58;1.73;;;0.77;;
45642;SDS011;31358;46.008;11.144;2023-06-24T11:12:27;3.40;;;1.00;;
45642;SDS011;31358;46.008;11.144;2023-06-24T11:14:58;3.05;;;0.75;;
45642;SDS011;31358;46.008;11.144;2023-06-24T11:17:26;1.60;;;0.65;;
45642;SDS011;31358;46.008;11.144;2023-06-24T11:19:56;1.83;;;0.80;;
45642;SDS011;31358;46.008;11.144;2023-06-24T11:22:22;9.15;;;1.40;;
45642;SDS011;31358;46.008;11.144;2023-06-24T11:24:49;1.75;;;0.80;;
45642;SDS011;31358;46.008;11.144;2023-06-24T11:27:15;4.47;;;1.20;;
45642;SDS011;31358;46.008;11.144;2023-06-24T11:29:41;2.53;;;1.33;;
45642;SDS011;31358;46.008;11.144;2023-06-24T11:32:07;6.55;;;1.17;;
45642;SDS011;31358;46.008;11.144;2023-06-24T11:34:34;2.03;;;1.20;;
45642;SDS011;31358;46.008;11.144;2023-06-24T11:37:10;3.10;;;1.20;;
45642;SDS011;31358;46.008;11.144;2023-06-24T11:39:40;2.25;;;0.93;;
45642;SDS011;31358;46.008;11.144;2023-06-24T11:42:06;5.45;;;1.48;;
45642;SDS011;31358;46.008;11.144;2023-06-24T11:44:33;1.70;;;0.80;;
45642;SDS011;31358;46.008;11.144;2023-06-24T11:47:08;6.05;;;1.10;;
45642;SDS011;31358;46.008;11.144;2023-06-24T11:49:50;1.65;;;0.95;;
45642;SDS011;31358;46.008;11.144;2023-06-24T11:52:19;2.08;;;0.90;;
45642;SDS011;31358;46.008;11.144;2023-06-24T11:55:17;2.15;;;0.95;;
45642;SDS011;31358;46.008;11.144;2023-06-24T11:57:58;2.20;;;1.10;;
45642;SDS011;31358;46.008;11.144;2023-06-24T12:00:34;2.80;;;1.10;;
45642;SDS011;31358;46.008;11.144;2023-06-24T12:03:04;1.80;;;0.73;;
45642;SDS011;31358;46.008;11.144;2023-06-24T12:05:34;1.30;;;0.70;;
45642;SDS011;31358;46.008;11.144;2023-06-24T12:08:02;3.50;;;1.08;;
45642;SDS011;31358;46.008;11.144;2023-06-24T12:10:30;1.58;;;0.75;;
45642;SDS011;31358;46.008;11.144;2023-06-24T12:12:59;3.63;;;0.70;;
45642;SDS011;31358;46.008;11.144;2023-06-24T12:15:26;1.23;;;0.60;;
45642;SDS011;31358;46.008;11.144;2023-06-24T12:17:53;2.28;;;0.82;;
45642;SDS011;31358;46.008;11.144;2023-06-24T12:20:19;1.55;;;0.90;;
45642;SDS011;31358;46.008;11.144;2023-06-24T12:22:46;3.35;;;1.08;;
45642;SDS011;31358;46.008;11.144;2023-06-24T12:25:13;2.58;;;0.85;;
45642;SDS011;31358;46.008;11.144;2023-06-24T12:27:41;1.40;;;0.70;;
45642;SDS011;31358;46.008;11.144;2023-06-24T12:30:07;3.58;;;0.98;;
45642;SDS011;31358;46.008;11.144;2023-06-24T12:32:34;1.80;;;0.80;;
45642;SDS011;31358;46.008;11.144;2023-06-24T12:34:59;2.35;;;0.98;;
45642;SDS011;31358;46.008;11.144;2023-06-24T12:37:27;3.63;;;1.30;;
45642;SDS011;31358;46.008;11.144;2023-06-24T12:39:55;2.00;;;0.80;;
45642;SDS011;31358;46.008;11.144;2023-06-24T12:42:21;1.48;;;0.75;;
45642;SDS011;31358;46.008;11.144;2023-06-24T12:44:46;2.75;;;0.93;;
45642;SDS011;31358;46.008;11.144;2023-06-24T12:47:12;2.00;;;1.00;;
45642;SDS011;31358;46.008;11.144;2023-06-24T12:49:38;2.50;;;1.08;;
45642;SDS011;31358;46.008;11.144;2023-06-24T12:52:03;4.05;;;1.08;;
45642;SDS011;31358;46.008;11.144;2023-06-24T12:54:29;2.47;;;1.00;;
45642;SDS011;31358;46.008;11.144;2023-06-24T12:56:55;3.90;;;1.30;;
45642;SDS011;31358;46.008;11.144;2023-06-24T12:59:22;1.80;;;0.80;;
45642;SDS011;31358;46.008;11.144;2023-06-24T13:01:47;1.88;;;0.82;;
45642;SDS011;31358;46.008;11.144;2023-06-24T13:04:13;3.60;;;0.93;;
45642;SDS011;31358;46.008;11.144;2023-06-24T13:06:39;2.15;;;0.82;;
45642;SDS011;31358;46.008;11.144;2023-06-24T13:09:05;2.50;;;1.23;;
45642;SDS011;31358;46.008;11.144;2023-06-24T13:11:31;1.77;;;0.98;;
45642;SDS011;31358;46.008;11.144;2023-06-24T13:13:56;2.90;;;1.10;;
45642;SDS011;31358;46.008;11.144;2023-06-24T13:16:22;2.03;;;0.90;;
45642;SDS011;31358;46.008;11.144;2023-06-24T13:18:47;2.05;;;0.90;;
45642;SDS011;31358;46.008;11.144;2023-06-24T13:21:14;3.28;;;0.95;;
45642;SDS011;31358;46.008;11.144;2023-06-24T13:23:40;2.58;;;1.05;;
45642;SDS011;31358;46.008;11.144;2023-06-24T13:26:06;1.70;;;0.80;;
45642;SDS011;31358;46.008;11.144;2023-06-24T13:28:32;3.58;;;0.85;;
45642;SDS011;31358;46.008;11.144;2023-06-24T13:30:58;2.22;;;1.02;;
45642;SDS011;31358;46.008;11.144;2023-06-24T13:33:24;1.40;;;0.75;;
45642;SDS011;31358;46.008;11.144;2023-06-24T13:35:50;2.67;;;1.08;;
45642;SDS011;31358;46.008;11.144;2023-06-24T13:38:16;2.97;;;0.85;;
45642;SDS011;31358;46.008;11.144;2023-06-24T13:40:42;2.88;;;1.10;;
45642;SDS011;31358;46.008;11.144;2023-06-24T13:43:07;2.13;;;0.90;;
45642;SDS011;31358;46.008;11.144;2023-06-24T13:45:33;2.03;;;1.02;;
45642;SDS011;31358;46.008;11.144;2023-06-24T13:47:59;1.85;;;0.90;;
45642;SDS011;31358;46.008;11.144;2023-06-24T13:50:24;2.45;;;1.17;;
45642;SDS011;31358;46.008;11.144;2023-06-24T13:52:50;3.53;;;1.33;;
45642;SDS011;31358;46.008;11.144;2023-06-24T13:55:16;1.83;;;0.93;;
45642;SDS011;31358;46.008;11.144;2023-06-24T13:57:41;2.40;;;0.93;;
45642;SDS011;31358;46.008;11.144;2023-06-24T14:00:07;1.42;;;0.80;;
45642;SDS011;31358;46.008;11.144;2023-06-24T14:02:34;4.13;;;1.20;;
45642;SDS011;31358;46.008;11.144;2023-06-24T14:05:00;1.77;;;0.93;;
45642;SDS011;31358;46.008;11.144;2023-06-24T14:07:25;2.40;;;1.25;;
45642;SDS011;31358;46.008;11.144;2023-06-24T14:09:51;2.10;;;1.00;;
45642;SDS011;31358;46.008;11.144;2023-06-24T14:12:17;2.45;;;1.00;;
45642;SDS011;31358;46.008;11.144;2023-06-24T14:14:42;3.20;;;1.00;;
45642;SDS011;31358;46.008;11.144;2023-06-24T14:17:08;3.15;;;1.20;;
45642;SDS011;31358;46.008;11.144;2023-06-24T14:19:36;2.17;;;1.10;;
45642;SDS011;31358;46.008;11.144;2023-06-24T14:22:02;1.70;;;0.88;;
45642;SDS011;31358;46.008;11.144;2023-06-24T14:24:28;2.28;;;1.10;;
45642;SDS011;31358;46.008;11.144;2023-06-24T14:26:54;2.30;;;0.90;;
45642;SDS011;31358;46.008;11.144;2023-06-24T14:29:19;2.58;;;1.13;;
45642;SDS011;31358;46.008;11.144;2023-06-24T14:31:45;3.03;;;0.80;;
45642;SDS011;31358;46.008;11.144;2023-06-24T14:34:11;2.70;;;0.98;;
45642;SDS011;31358;46.008;11.144;2023-06-24T14:36:37;1.48;;;0.95;;
45642;SDS011;31358;46.008;11.144;2023-06-24T14:39:03;4.53;;;1.20;;
45642;SDS011;31358;46.008;11.144;2023-06-24T14:41:29;3.10;;;1.30;;
45642;SDS011;31358;46.008;11.144;2023-06-24T14:43:54;3.25;;;1.10;;
45642;SDS011;31358;46.008;11.144;2023-06-24T14:46:20;2.33;;;1.10;;
45642;SDS011;31358;46.008;11.144;2023-06-24T14:48:46;3.65;;;1.15;;
45642;SDS011;31358;46.008;11.144;2023-06-24T14:51:12;1.90;;;0.90;;
45642;SDS011;31358;46.008;11.144;2023-06-24T14:53:37;2.47;;;1.13;;